sensor_id;sensor_type;location;lat;lon;timestamp;temperature;humidity
50955;DHT22;36966;48.064;-0.792;2023-07-02T00:00:46;23.50;50.80
50955;DHT22;36966;48.064;-0.792;2023-07-02T00:03:05;23.50;50.80
50955;DHT22;36966;48.064;-0.792;2023-07-02T00:05:24;23.50;50.70
50955;DHT22;36966;48.064;-0.792;2023-07-02T00:07:44;23.50;50.80
50955;DHT22;36966;48.064;-0.792;2023-07-02T00:10:03;23.50;50.80
50955;DHT22;36966;48.064;-0.792;2023-07-02T00:12:22;23.50;50.80
50955;DHT22;36966;48.064;-0.792;2023-07-02T00:14:42;23.50;50.80
50955;DHT22;36966;48.064;-0.792;2023-07-02T00:17:01;23.50;50.80
50955;DHT22;36966;48.064;-0.792;2023-07-02T00:19:20;23.50;50.80
50955;DHT22;36966;48.064;-0.792;2023-07-02T00:21:39;23.50;50.80
50955;DHT22;36966;48.064;-0.792;2023-07-02T00:24:00;23.50;50.80
50955;DHT22;36966;48.064;-0.792;2023-07-02T00:26:19;23.50;50.80
50955;DHT22;36966;48.064;-0.792;2023-07-02T00:28:38;23.40;50.80
50955;DHT22;36966;48.064;-0.792;2023-07-02T00:30:58;23.40;50.90
50955;DHT22;36966;48.064;-0.792;2023-07-02T00:33:17;23.40;50.80
50955;DHT22;36966;48.064;-0.792;2023-07-02T00:35:40;23.40;50.90
50955;DHT22;36966;48.064;-0.792;2023-07-02T00:37:59;23.40;50.90
50955;DHT22;36966;48.064;-0.792;2023-07-02T00:40:18;23.40;50.90
50955;DHT22;36966;48.064;-0.792;2023-07-02T00:42:38;23.40;50.90
50955;DHT22;36966;48.064;-0.792;2023-07-02T00:44:58;23.40;50.90
50955;DHT22;36966;48.064;-0.792;2023-07-02T00:47:21;23.40;50.90
50955;DHT22;36966;48.064;-0.792;2023-07-02T00:49:41;23.40;51.00
50955;DHT22;36966;48.064;-0.792;2023-07-02T00:52:01;23.40;50.90
50955;DHT22;36966;48.064;-0.792;2023-07-02T00:54:20;23.40;51.00
50955;DHT22;36966;48.064;-0.792;2023-07-02T00:56:39;23.40;51.00
50955;DHT22;36966;48.064;-0.792;2023-07-02T00:58:58;23.30;50.90
50955;DHT22;36966;48.064;-0.792;2023-07-02T01:01:23;23.30;50.90
50955;DHT22;36966;48.064;-0.792;2023-07-02T01:06:12;23.40;50.90
50955;DHT22;36966;48.064;-0.792;2023-07-02T01:08:33;23.30;50.80
50955;DHT22;36966;48.064;-0.792;2023-07-02T01:10:52;23.30;50.90
50955;DHT22;36966;48.064;-0.792;2023-07-02T01:13:14;23.30;50.90
50955;DHT22;36966;48.064;-0.792;2023-07-02T01:15:34;23.30;50.80
50955;DHT22;36966;48.064;-0.792;2023-07-02T01:17:53;23.30;50.70
50955;DHT22;36966;48.064;-0.792;2023-07-02T01:20:13;23.30;50.80
50955;DHT22;36966;48.064;-0.792;2023-07-02T01:22:32;23.30;50.80
50955;DHT22;36966;48.064;-0.792;2023-07-02T01:24:53;23.30;50.80
50955;DHT22;36966;48.064;-0.792;2023-07-02T01:27:13;23.30;50.80
50955;DHT22;36966;48.064;-0.792;2023-07-02T01:29:33;23.30;50.70
50955;DHT22;36966;48.064;-0.792;2023-07-02T01:31:55;23.30;50.70
50955;DHT22;36966;48.064;-0.792;2023-07-02T01:34:15;23.30;50.70
50955;DHT22;36966;48.064;-0.792;2023-07-02T01:36:34;23.30;50.70
50955;DHT22;36966;48.064;-0.792;2023-07-02T01:38:54;23.30;50.70
50955;DHT22;36966;48.064;-0.792;2023-07-02T01:41:13;23.30;50.60
50955;DHT22;36966;48.064;-0.792;2023-07-02T01:43:32;23.30;50.70
50955;DHT22;36966;48.064;-0.792;2023-07-02T01:45:52;23.30;50.70
50955;DHT22;36966;48.064;-0.792;2023-07-02T01:48:11;23.30;50.60
50955;DHT22;36966;48.064;-0.792;2023-07-02T01:50:30;23.30;50.70
50955;DHT22;36966;48.064;-0.792;2023-07-02T01:52:49;23.30;50.60
50955;DHT22;36966;48.064;-0.792;2023-07-02T01:55:09;23.20;50.60
50955;DHT22;36966;48.064;-0.792;2023-07-02T01:57:28;23.30;50.60
50955;DHT22;36966;48.064;-0.792;2023-07-02T01:59:49;23.20;50.60
50955;DHT22;36966;48.064;-0.792;2023-07-02T02:02:08;23.20;50.50
50955;DHT22;36966;48.064;-0.792;2023-07-02T02:04:28;23.20;50.60
50955;DHT22;36966;48.064;-0.792;2023-07-02T02:06:47;23.20;50.50
50955;DHT22;36966;48.064;-0.792;2023-07-02T02:09:09;23.20;50.50
50955;DHT22;36966;48.064;-0.792;2023-07-02T02:11:29;23.20;50.50
50955;DHT22;36966;48.064;-0.792;2023-07-02T02:13:49;23.20;50.50
50955;DHT22;36966;48.064;-0.792;2023-07-02T02:16:09;23.20;50.50
50955;DHT22;36966;48.064;-0.792;2023-07-02T02:18:29;23.20;50.40
50955;DHT22;36966;48.064;-0.792;2023-07-02T02:20:48;23.20;50.40
50955;DHT22;36966;48.064;-0.792;2023-07-02T02:23:08;23.20;50.40
50955;DHT22;36966;48.064;-0.792;2023-07-02T02:25:27;23.20;50.40
50955;DHT22;36966;48.064;-0.792;2023-07-02T02:27:46;23.20;50.40
50955;DHT22;36966;48.064;-0.792;2023-07-02T02:30:09;23.20;50.40
50955;DHT22;36966;48.064;-0.792;2023-07-02T02:32:29;23.20;50.40
50955;DHT22;36966;48.064;-0.792;2023-07-02T02:34:48;23.20;50.30
50955;DHT22;36966;48.064;-0.792;2023-07-02T02:37:07;23.20;50.30
50955;DHT22;36966;48.064;-0.792;2023-07-02T02:39:27;23.20;50.30
50955;DHT22;36966;48.064;-0.792;2023-07-02T02:41:46;23.20;50.30
50955;DHT22;36966;48.064;-0.792;2023-07-02T02:44:05;23.20;50.30
50955;DHT22;36966;48.064;-0.792;2023-07-02T02:46:24;23.10;50.30
50955;DHT22;36966;48.064;-0.792;2023-07-02T02:48:44;23.20;50.20
50955;DHT22;36966;48.064;-0.792;2023-07-02T02:51:03;23.20;50.30
50955;DHT22;36966;48.064;-0.792;2023-07-02T02:53:22;23.10;50.30
50955;DHT22;36966;48.064;-0.792;2023-07-02T02:55:41;23.20;50.30
50955;DHT22;36966;48.064;-0.792;2023-07-02T02:58:00;23.10;50.20
50955;DHT22;36966;48.064;-0.792;2023-07-02T03:00:20;23.10;50.20
50955;DHT22;36966;48.064;-0.792;2023-07-02T03:02:39;23.10;50.20
50955;DHT22;36966;48.064;-0.792;2023-07-02T03:04:58;23.10;50.20
50955;DHT22;36966;48.064;-0.792;2023-07-02T03:07:21;23.10;50.20
50955;DHT22;36966;48.064;-0.792;2023-07-02T03:09:40;23.10;50.20
50955;DHT22;36966;48.064;-0.792;2023-07-02T03:11:59;23.10;50.20
50955;DHT22;36966;48.064;-0.792;2023-07-02T03:14:18;23.10;50.20
50955;DHT22;36966;48.064;-0.792;2023-07-02T03:16:38;23.20;50.10
50955;DHT22;36966;48.064;-0.792;2023-07-02T03:18:57;23.10;50.10
50955;DHT22;36966;48.064;-0.792;2023-07-02T03:21:18;23.10;50.10
50955;DHT22;36966;48.064;-0.792;2023-07-02T03:23:40;23.10;50.10
50955;DHT22;36966;48.064;-0.792;2023-07-02T03:26:00;23.10;50.00
50955;DHT22;36966;48.064;-0.792;2023-07-02T03:28:19;23.10;50.00
50955;DHT22;36966;48.064;-0.792;2023-07-02T03:30:38;23.10;50.00
50955;DHT22;36966;48.064;-0.792;2023-07-02T03:32:57;23.10;49.90
50955;DHT22;36966;48.064;-0.792;2023-07-02T03:35:17;23.10;49.90
50955;DHT22;36966;48.064;-0.792;2023-07-02T03:37:36;23.10;49.90
50955;DHT22;36966;48.064;-0.792;2023-07-02T03:39:55;23.00;49.80
50955;DHT22;36966;48.064;-0.792;2023-07-02T03:42:17;23.00;49.80
50955;DHT22;36966;48.064;-0.792;2023-07-02T03:44:37;23.10;49.80
50955;DHT22;36966;48.064;-0.792;2023-07-02T03:46:56;23.10;49.80
50955;DHT22;36966;48.064;-0.792;2023-07-02T03:49:16;23.10;49.80
50955;DHT22;36966;48.064;-0.792;2023-07-02T03:51:38;23.00;49.80
50955;DHT22;36966;48.064;-0.792;2023-07-02T03:54:00;23.00;49.70
50955;DHT22;36966;48.064;-0.792;2023-07-02T03:56:20;23.10;49.70
50955;DHT22;36966;48.064;-0.792;2023-07-02T03:58:40;23.00;49.70
50955;DHT22;36966;48.064;-0.792;2023-07-02T04:01:00;23.00;49.70
50955;DHT22;36966;48.064;-0.792;2023-07-02T04:03:19;23.00;49.60
50955;DHT22;36966;48.064;-0.792;2023-07-02T04:05:39;23.00;49.60
50955;DHT22;36966;48.064;-0.792;2023-07-02T04:07:59;23.10;49.60
50955;DHT22;36966;48.064;-0.792;2023-07-02T04:10:18;23.00;49.60
50955;DHT22;36966;48.064;-0.792;2023-07-02T04:12:38;23.00;49.60
50955;DHT22;36966;48.064;-0.792;2023-07-02T04:14:57;23.10;49.60
50955;DHT22;36966;48.064;-0.792;2023-07-02T04:17:16;23.10;49.50
50955;DHT22;36966;48.064;-0.792;2023-07-02T04:19:36;23.10;49.50
50955;DHT22;36966;48.064;-0.792;2023-07-02T04:21:55;23.10;49.40
50955;DHT22;36966;48.064;-0.792;2023-07-02T04:24:14;23.10;49.40
50955;DHT22;36966;48.064;-0.792;2023-07-02T04:26:33;23.10;49.40
50955;DHT22;36966;48.064;-0.792;2023-07-02T04:28:53;23.10;49.30
50955;DHT22;36966;48.064;-0.792;2023-07-02T04:31:13;23.10;49.30
50955;DHT22;36966;48.064;-0.792;2023-07-02T04:33:33;23.10;49.30
50955;DHT22;36966;48.064;-0.792;2023-07-02T04:35:55;23.10;49.20
50955;DHT22;36966;48.064;-0.792;2023-07-02T04:38:14;23.20;49.20
50955;DHT22;36966;48.064;-0.792;2023-07-02T04:40:33;23.20;49.20
50955;DHT22;36966;48.064;-0.792;2023-07-02T04:42:52;23.20;49.10
50955;DHT22;36966;48.064;-0.792;2023-07-02T04:45:16;23.20;49.10
50955;DHT22;36966;48.064;-0.792;2023-07-02T04:47:36;23.20;49.10
50955;DHT22;36966;48.064;-0.792;2023-07-02T04:49:55;23.20;48.90
50955;DHT22;36966;48.064;-0.792;2023-07-02T04:52:14;23.20;48.80
50955;DHT22;36966;48.064;-0.792;2023-07-02T04:54:33;23.20;48.80
50955;DHT22;36966;48.064;-0.792;2023-07-02T04:56:53;23.20;48.70
50955;DHT22;36966;48.064;-0.792;2023-07-02T04:59:12;23.20;48.70
50955;DHT22;36966;48.064;-0.792;2023-07-02T05:01:31;23.20;48.70
50955;DHT22;36966;48.064;-0.792;2023-07-02T05:03:50;23.20;48.70
50955;DHT22;36966;48.064;-0.792;2023-07-02T05:06:10;23.30;48.70
50955;DHT22;36966;48.064;-0.792;2023-07-02T05:08:29;23.30;48.70
50955;DHT22;36966;48.064;-0.792;2023-07-02T05:10:48;23.30;48.70
50955;DHT22;36966;48.064;-0.792;2023-07-02T05:13:08;23.20;48.70
50955;DHT22;36966;48.064;-0.792;2023-07-02T05:15:27;23.30;48.60
50955;DHT22;36966;48.064;-0.792;2023-07-02T05:17:46;23.30;48.70
50955;DHT22;36966;48.064;-0.792;2023-07-02T05:20:06;23.30;48.60
50955;DHT22;36966;48.064;-0.792;2023-07-02T05:22:25;23.30;48.60
50955;DHT22;36966;48.064;-0.792;2023-07-02T05:24:44;23.30;48.70
50955;DHT22;36966;48.064;-0.792;2023-07-02T05:27:05;23.30;48.60
50955;DHT22;36966;48.064;-0.792;2023-07-02T05:29:24;23.30;48.60
50955;DHT22;36966;48.064;-0.792;2023-07-02T05:31:44;23.30;48.60
50955;DHT22;36966;48.064;-0.792;2023-07-02T05:34:03;23.30;48.60
50955;DHT22;36966;48.064;-0.792;2023-07-02T05:36:22;23.30;48.60
50955;DHT22;36966;48.064;-0.792;2023-07-02T05:38:41;23.30;48.60
50955;DHT22;36966;48.064;-0.792;2023-07-02T05:41:04;23.30;48.60
50955;DHT22;36966;48.064;-0.792;2023-07-02T05:43:23;23.30;48.60
50955;DHT22;36966;48.064;-0.792;2023-07-02T05:45:42;23.30;48.60
50955;DHT22;36966;48.064;-0.792;2023-07-02T05:48:02;23.30;48.60
50955;DHT22;36966;48.064;-0.792;2023-07-02T05:50:21;23.30;48.70
50955;DHT22;36966;48.064;-0.792;2023-07-02T05:52:40;23.40;48.60
50955;DHT22;36966;48.064;-0.792;2023-07-02T05:54:59;23.30;48.70
50955;DHT22;36966;48.064;-0.792;2023-07-02T05:57:19;23.40;48.60
50955;DHT22;36966;48.064;-0.792;2023-07-02T05:59:38;23.40;48.60
50955;DHT22;36966;48.064;-0.792;2023-07-02T06:01:57;23.40;48.70
50955;DHT22;36966;48.064;-0.792;2023-07-02T06:04:16;23.40;48.70
50955;DHT22;36966;48.064;-0.792;2023-07-02T06:06:36;23.40;48.70
50955;DHT22;36966;48.064;-0.792;2023-07-02T06:08:55;23.40;48.60
50955;DHT22;36966;48.064;-0.792;2023-07-02T06:11:14;23.40;48.70
50955;DHT22;36966;48.064;-0.792;2023-07-02T06:13:34;23.40;48.70
50955;DHT22;36966;48.064;-0.792;2023-07-02T06:15:53;23.40;48.70
50955;DHT22;36966;48.064;-0.792;2023-07-02T06:18:12;23.40;48.70
50955;DHT22;36966;48.064;-0.792;2023-07-02T06:20:32;23.40;48.70
50955;DHT22;36966;48.064;-0.792;2023-07-02T06:22:51;23.50;48.70
50955;DHT22;36966;48.064;-0.792;2023-07-02T06:25:10;23.50;48.80
50955;DHT22;36966;48.064;-0.792;2023-07-02T06:27:29;23.50;48.80
50955;DHT22;36966;48.064;-0.792;2023-07-02T06:29:48;23.50;48.80
50955;DHT22;36966;48.064;-0.792;2023-07-02T06:32:09;23.50;48.80
50955;DHT22;36966;48.064;-0.792;2023-07-02T06:34:29;23.50;48.80
50955;DHT22;36966;48.064;-0.792;2023-07-02T06:36:48;23.50;48.80
50955;DHT22;36966;48.064;-0.792;2023-07-02T06:39:07;23.50;48.80
50955;DHT22;36966;48.064;-0.792;2023-07-02T06:41:28;23.60;48.80
50955;DHT22;36966;48.064;-0.792;2023-07-02T06:43:47;23.60;48.90
50955;DHT22;36966;48.064;-0.792;2023-07-02T06:46:06;23.60;48.90
50955;DHT22;36966;48.064;-0.792;2023-07-02T06:48:25;23.60;49.00
50955;DHT22;36966;48.064;-0.792;2023-07-02T06:50:45;23.60;49.00
50955;DHT22;36966;48.064;-0.792;2023-07-02T06:53:05;23.60;49.00
50955;DHT22;36966;48.064;-0.792;2023-07-02T06:55:24;23.70;49.20
50955;DHT22;36966;48.064;-0.792;2023-07-02T06:57:43;23.70;49.40
50955;DHT22;36966;48.064;-0.792;2023-07-02T07:00:06;23.70;49.20
50955;DHT22;36966;48.064;-0.792;2023-07-02T07:02:27;23.70;49.40
50955;DHT22;36966;48.064;-0.792;2023-07-02T07:04:46;23.70;49.50
50955;DHT22;36966;48.064;-0.792;2023-07-02T07:07:05;23.70;49.50
50955;DHT22;36966;48.064;-0.792;2023-07-02T07:09:25;23.70;49.50
50955;DHT22;36966;48.064;-0.792;2023-07-02T07:11:44;23.80;49.40
50955;DHT22;36966;48.064;-0.792;2023-07-02T07:14:04;23.80;49.40
50955;DHT22;36966;48.064;-0.792;2023-07-02T07:16:23;23.80;49.40
50955;DHT22;36966;48.064;-0.792;2023-07-02T07:18:43;23.90;49.40
50955;DHT22;36966;48.064;-0.792;2023-07-02T07:21:03;23.90;49.30
50955;DHT22;36966;48.064;-0.792;2023-07-02T07:23:22;23.90;49.40
50955;DHT22;36966;48.064;-0.792;2023-07-02T07:25:41;23.90;49.30
50955;DHT22;36966;48.064;-0.792;2023-07-02T07:28:01;23.90;49.40
50955;DHT22;36966;48.064;-0.792;2023-07-02T07:30:20;23.90;49.40
50955;DHT22;36966;48.064;-0.792;2023-07-02T07:32:41;24.00;49.40
50955;DHT22;36966;48.064;-0.792;2023-07-02T07:35:00;24.00;49.40
50955;DHT22;36966;48.064;-0.792;2023-07-02T07:37:19;24.00;49.30
50955;DHT22;36966;48.064;-0.792;2023-07-02T07:39:39;24.10;49.30
50955;DHT22;36966;48.064;-0.792;2023-07-02T07:41:58;24.10;49.30
50955;DHT22;36966;48.064;-0.792;2023-07-02T07:44:17;24.10;49.30
50955;DHT22;36966;48.064;-0.792;2023-07-02T07:46:36;24.10;49.30
50955;DHT22;36966;48.064;-0.792;2023-07-02T07:48:56;24.10;49.20
50955;DHT22;36966;48.064;-0.792;2023-07-02T07:51:15;24.20;49.20
50955;DHT22;36966;48.064;-0.792;2023-07-02T07:53:37;24.20;49.20
50955;DHT22;36966;48.064;-0.792;2023-07-02T07:55:56;24.20;49.20
50955;DHT22;36966;48.064;-0.792;2023-07-02T07:58:16;24.20;49.10
50955;DHT22;36966;48.064;-0.792;2023-07-02T08:00:35;24.30;49.00
50955;DHT22;36966;48.064;-0.792;2023-07-02T08:02:54;24.30;48.90
50955;DHT22;36966;48.064;-0.792;2023-07-02T08:05:14;24.30;48.90
50955;DHT22;36966;48.064;-0.792;2023-07-02T08:07:33;24.30;48.90
50955;DHT22;36966;48.064;-0.792;2023-07-02T08:09:53;24.30;48.80
50955;DHT22;36966;48.064;-0.792;2023-07-02T08:12:12;24.30;48.90
50955;DHT22;36966;48.064;-0.792;2023-07-02T08:14:31;24.30;49.00
50955;DHT22;36966;48.064;-0.792;2023-07-02T08:16:50;24.30;48.90
50955;DHT22;36966;48.064;-0.792;2023-07-02T08:19:11;24.30;48.90
50955;DHT22;36966;48.064;-0.792;2023-07-02T08:21:30;24.30;49.00
50955;DHT22;36966;48.064;-0.792;2023-07-02T08:23:49;24.30;48.90
50955;DHT22;36966;48.064;-0.792;2023-07-02T08:26:09;24.40;48.90
50955;DHT22;36966;48.064;-0.792;2023-07-02T08:28:29;24.40;48.90
50955;DHT22;36966;48.064;-0.792;2023-07-02T08:30:49;24.40;48.90
50955;DHT22;36966;48.064;-0.792;2023-07-02T08:33:09;24.40;48.90
50955;DHT22;36966;48.064;-0.792;2023-07-02T08:35:29;24.40;48.80
50955;DHT22;36966;48.064;-0.792;2023-07-02T08:37:48;24.40;48.90
50955;DHT22;36966;48.064;-0.792;2023-07-02T08:40:15;24.40;48.80
50955;DHT22;36966;48.064;-0.792;2023-07-02T08:42:34;24.50;48.70
50955;DHT22;36966;48.064;-0.792;2023-07-02T08:44:54;24.60;48.60
50955;DHT22;36966;48.064;-0.792;2023-07-02T08:47:13;24.60;48.50
50955;DHT22;36966;48.064;-0.792;2023-07-02T08:49:33;24.60;48.40
50955;DHT22;36966;48.064;-0.792;2023-07-02T08:51:52;24.60;48.40
50955;DHT22;36966;48.064;-0.792;2023-07-02T08:54:11;24.70;48.30
50955;DHT22;36966;48.064;-0.792;2023-07-02T08:56:31;24.70;48.10
50955;DHT22;36966;48.064;-0.792;2023-07-02T08:58:50;24.70;46.20
50955;DHT22;36966;48.064;-0.792;2023-07-02T09:01:10;24.70;45.60
50955;DHT22;36966;48.064;-0.792;2023-07-02T09:03:29;24.60;45.30
50955;DHT22;36966;48.064;-0.792;2023-07-02T09:05:52;24.30;45.20
50955;DHT22;36966;48.064;-0.792;2023-07-02T09:08:12;24.60;44.60
50955;DHT22;36966;48.064;-0.792;2023-07-02T09:10:31;24.30;45.10
50955;DHT22;36966;48.064;-0.792;2023-07-02T09:12:50;24.20;45.70
50955;DHT22;36966;48.064;-0.792;2023-07-02T09:15:10;24.40;45.60
50955;DHT22;36966;48.064;-0.792;2023-07-02T09:17:30;24.20;45.50
50955;DHT22;36966;48.064;-0.792;2023-07-02T09:19:50;23.80;45.40
50955;DHT22;36966;48.064;-0.792;2023-07-02T09:22:11;23.30;46.40
50955;DHT22;36966;48.064;-0.792;2023-07-02T09:24:31;23.10;46.60
50955;DHT22;36966;48.064;-0.792;2023-07-02T09:26:52;23.20;47.40
50955;DHT22;36966;48.064;-0.792;2023-07-02T09:29:12;23.60;46.70
50955;DHT22;36966;48.064;-0.792;2023-07-02T09:31:42;23.90;46.20
50955;DHT22;36966;48.064;-0.792;2023-07-02T09:34:02;24.10;46.00
50955;DHT22;36966;48.064;-0.792;2023-07-02T09:36:21;24.20;45.80
50955;DHT22;36966;48.064;-0.792;2023-07-02T09:38:40;24.40;45.70
50955;DHT22;36966;48.064;-0.792;2023-07-02T09:41:00;24.40;45.70
50955;DHT22;36966;48.064;-0.792;2023-07-02T09:43:19;24.50;45.70
50955;DHT22;36966;48.064;-0.792;2023-07-02T09:45:40;24.50;45.70
50955;DHT22;36966;48.064;-0.792;2023-07-02T09:48:01;24.50;45.70
50955;DHT22;36966;48.064;-0.792;2023-07-02T09:50:21;24.60;45.80
50955;DHT22;36966;48.064;-0.792;2023-07-02T09:52:41;24.60;45.80
50955;DHT22;36966;48.064;-0.792;2023-07-02T09:55:01;24.70;45.80
50955;DHT22;36966;48.064;-0.792;2023-07-02T09:57:20;24.70;45.70
50955;DHT22;36966;48.064;-0.792;2023-07-02T09:59:40;24.70;45.80
50955;DHT22;36966;48.064;-0.792;2023-07-02T10:01:59;24.70;45.80
50955;DHT22;36966;48.064;-0.792;2023-07-02T10:04:19;24.70;45.70
50955;DHT22;36966;48.064;-0.792;2023-07-02T10:09:38;24.80;45.80
50955;DHT22;36966;48.064;-0.792;2023-07-02T10:11:57;24.90;45.80
50955;DHT22;36966;48.064;-0.792;2023-07-02T10:14:17;24.90;45.80
50955;DHT22;36966;48.064;-0.792;2023-07-02T10:16:49;24.90;45.80
50955;DHT22;36966;48.064;-0.792;2023-07-02T10:19:09;25.00;45.80
50955;DHT22;36966;48.064;-0.792;2023-07-02T10:21:28;24.90;45.90
50955;DHT22;36966;48.064;-0.792;2023-07-02T10:23:48;24.90;46.00
50955;DHT22;36966;48.064;-0.792;2023-07-02T10:26:13;24.90;45.90
50955;DHT22;36966;48.064;-0.792;2023-07-02T10:28:32;24.90;46.00
50955;DHT22;36966;48.064;-0.792;2023-07-02T10:30:52;24.90;46.10
50955;DHT22;36966;48.064;-0.792;2023-07-02T10:33:13;24.90;46.10
50955;DHT22;36966;48.064;-0.792;2023-07-02T10:35:32;24.90;46.00
50955;DHT22;36966;48.064;-0.792;2023-07-02T10:37:52;24.90;46.10
50955;DHT22;36966;48.064;-0.792;2023-07-02T10:40:12;25.00;45.90
50955;DHT22;36966;48.064;-0.792;2023-07-02T10:42:31;25.00;45.70
50955;DHT22;36966;48.064;-0.792;2023-07-02T10:44:52;25.00;45.70
50955;DHT22;36966;48.064;-0.792;2023-07-02T10:47:11;25.10;45.60
50955;DHT22;36966;48.064;-0.792;2023-07-02T10:49:31;25.10;45.50
50955;DHT22;36966;48.064;-0.792;2023-07-02T10:51:57;25.20;45.60
50955;DHT22;36966;48.064;-0.792;2023-07-02T10:54:17;25.20;45.70
50955;DHT22;36966;48.064;-0.792;2023-07-02T10:56:36;25.20;45.70
50955;DHT22;36966;48.064;-0.792;2023-07-02T10:58:56;25.10;45.60
50955;DHT22;36966;48.064;-0.792;2023-07-02T11:01:15;25.10;45.70
50955;DHT22;36966;48.064;-0.792;2023-07-02T11:03:40;25.10;45.50
50955;DHT22;36966;48.064;-0.792;2023-07-02T11:06:00;25.10;45.40
50955;DHT22;36966;48.064;-0.792;2023-07-02T11:08:19;25.10;45.40
50955;DHT22;36966;48.064;-0.792;2023-07-02T11:10:43;25.10;45.30
50955;DHT22;36966;48.064;-0.792;2023-07-02T11:13:16;25.10;45.50
50955;DHT22;36966;48.064;-0.792;2023-07-02T11:15:35;25.10;45.40
50955;DHT22;36966;48.064;-0.792;2023-07-02T11:17:55;25.20;45.50
50955;DHT22;36966;48.064;-0.792;2023-07-02T11:20:14;25.10;45.70
50955;DHT22;36966;48.064;-0.792;2023-07-02T11:22:36;25.10;45.50
50955;DHT22;36966;48.064;-0.792;2023-07-02T11:24:55;25.10;45.60
50955;DHT22;36966;48.064;-0.792;2023-07-02T11:27:20;25.10;45.50
50955;DHT22;36966;48.064;-0.792;2023-07-02T11:29:40;25.10;45.50
50955;DHT22;36966;48.064;-0.792;2023-07-02T11:32:10;25.10;45.50
50955;DHT22;36966;48.064;-0.792;2023-07-02T11:34:29;25.20;45.50
50955;DHT22;36966;48.064;-0.792;2023-07-02T11:36:49;25.20;45.30
50955;DHT22;36966;48.064;-0.792;2023-07-02T11:39:09;25.20;45.30
50955;DHT22;36966;48.064;-0.792;2023-07-02T11:41:38;25.20;45.50
50955;DHT22;36966;48.064;-0.792;2023-07-02T11:43:58;25.20;45.40
50955;DHT22;36966;48.064;-0.792;2023-07-02T11:46:17;25.20;45.50
50955;DHT22;36966;48.064;-0.792;2023-07-02T11:48:36;25.20;45.50
50955;DHT22;36966;48.064;-0.792;2023-07-02T11:50:55;25.20;45.50
50955;DHT22;36966;48.064;-0.792;2023-07-02T11:53:15;25.20;45.50
50955;DHT22;36966;48.064;-0.792;2023-07-02T11:55:36;25.20;45.30
50955;DHT22;36966;48.064;-0.792;2023-07-02T11:57:55;25.20;45.50
50955;DHT22;36966;48.064;-0.792;2023-07-02T12:00:15;25.20;45.40
50955;DHT22;36966;48.064;-0.792;2023-07-02T12:02:34;25.20;45.40
50955;DHT22;36966;48.064;-0.792;2023-07-02T12:04:53;25.20;45.20
50955;DHT22;36966;48.064;-0.792;2023-07-02T12:07:13;25.20;45.30
50955;DHT22;36966;48.064;-0.792;2023-07-02T12:09:33;25.20;45.30
50955;DHT22;36966;48.064;-0.792;2023-07-02T12:11:52;25.20;45.40
50955;DHT22;36966;48.064;-0.792;2023-07-02T12:14:11;25.20;45.30
50955;DHT22;36966;48.064;-0.792;2023-07-02T12:16:30;25.20;45.00
50955;DHT22;36966;48.064;-0.792;2023-07-02T12:18:50;25.20;45.10
50955;DHT22;36966;48.064;-0.792;2023-07-02T12:21:09;25.30;45.20
50955;DHT22;36966;48.064;-0.792;2023-07-02T12:23:28;25.20;45.30
50955;DHT22;36966;48.064;-0.792;2023-07-02T12:25:48;25.20;45.30
50955;DHT22;36966;48.064;-0.792;2023-07-02T12:28:07;25.20;45.20
50955;DHT22;36966;48.064;-0.792;2023-07-02T12:30:26;25.20;45.30
50955;DHT22;36966;48.064;-0.792;2023-07-02T12:32:45;25.30;44.90
50955;DHT22;36966;48.064;-0.792;2023-07-02T12:35:05;25.30;45.10
50955;DHT22;36966;48.064;-0.792;2023-07-02T12:37:24;25.30;45.00
50955;DHT22;36966;48.064;-0.792;2023-07-02T12:39:43;25.20;44.80
50955;DHT22;36966;48.064;-0.792;2023-07-02T12:42:03;25.20;45.10
50955;DHT22;36966;48.064;-0.792;2023-07-02T12:44:22;25.30;45.00
50955;DHT22;36966;48.064;-0.792;2023-07-02T12:46:41;25.20;45.10
50955;DHT22;36966;48.064;-0.792;2023-07-02T12:49:00;25.20;45.10
50955;DHT22;36966;48.064;-0.792;2023-07-02T12:51:19;25.30;45.30
50955;DHT22;36966;48.064;-0.792;2023-07-02T12:53:39;25.20;45.50
50955;DHT22;36966;48.064;-0.792;2023-07-02T12:55:58;25.20;45.40
50955;DHT22;36966;48.064;-0.792;2023-07-02T12:58:18;25.20;45.50
50955;DHT22;36966;48.064;-0.792;2023-07-02T13:00:38;25.20;45.50
50955;DHT22;36966;48.064;-0.792;2023-07-02T13:02:57;25.30;45.50
50955;DHT22;36966;48.064;-0.792;2023-07-02T13:05:16;25.20;45.50
50955;DHT22;36966;48.064;-0.792;2023-07-02T13:07:36;25.20;45.50
50955;DHT22;36966;48.064;-0.792;2023-07-02T13:09:55;25.30;45.50
50955;DHT22;36966;48.064;-0.792;2023-07-02T13:12:14;25.20;45.50
50955;DHT22;36966;48.064;-0.792;2023-07-02T13:14:34;25.20;45.60
50955;DHT22;36966;48.064;-0.792;2023-07-02T13:16:53;25.20;45.50
50955;DHT22;36966;48.064;-0.792;2023-07-02T13:19:13;25.20;45.50
50955;DHT22;36966;48.064;-0.792;2023-07-02T13:21:32;25.20;45.60
50955;DHT22;36966;48.064;-0.792;2023-07-02T13:23:51;25.20;45.60
50955;DHT22;36966;48.064;-0.792;2023-07-02T13:26:10;25.20;45.60
50955;DHT22;36966;48.064;-0.792;2023-07-02T13:28:30;25.20;45.50
50955;DHT22;36966;48.064;-0.792;2023-07-02T13:30:49;25.20;45.70
50955;DHT22;36966;48.064;-0.792;2023-07-02T13:33:09;25.20;45.50
50955;DHT22;36966;48.064;-0.792;2023-07-02T13:35:28;25.20;45.60
50955;DHT22;36966;48.064;-0.792;2023-07-02T13:37:47;25.20;45.50
50955;DHT22;36966;48.064;-0.792;2023-07-02T13:40:07;25.20;45.70
50955;DHT22;36966;48.064;-0.792;2023-07-02T13:42:29;25.20;45.60
50955;DHT22;36966;48.064;-0.792;2023-07-02T13:44:48;25.20;45.50
50955;DHT22;36966;48.064;-0.792;2023-07-02T13:47:07;25.20;45.50
50955;DHT22;36966;48.064;-0.792;2023-07-02T13:49:26;25.20;45.50
50955;DHT22;36966;48.064;-0.792;2023-07-02T13:51:46;25.20;45.60
50955;DHT22;36966;48.064;-0.792;2023-07-02T13:54:05;25.20;45.60
50955;DHT22;36966;48.064;-0.792;2023-07-02T13:56:24;25.20;45.70
50955;DHT22;36966;48.064;-0.792;2023-07-02T14:01:15;25.20;45.70
50955;DHT22;36966;48.064;-0.792;2023-07-02T14:03:34;25.20;45.60
50955;DHT22;36966;48.064;-0.792;2023-07-02T14:05:53;25.20;45.70
50955;DHT22;36966;48.064;-0.792;2023-07-02T14:08:13;25.20;45.60
50955;DHT22;36966;48.064;-0.792;2023-07-02T14:10:32;25.20;45.60
50955;DHT22;36966;48.064;-0.792;2023-07-02T14:12:51;25.20;45.70
50955;DHT22;36966;48.064;-0.792;2023-07-02T14:15:10;25.20;45.50
50955;DHT22;36966;48.064;-0.792;2023-07-02T14:17:30;25.20;45.50
50955;DHT22;36966;48.064;-0.792;2023-07-02T14:19:49;25.20;45.60
50955;DHT22;36966;48.064;-0.792;2023-07-02T14:22:08;25.20;45.60
50955;DHT22;36966;48.064;-0.792;2023-07-02T14:24:28;25.20;45.60
50955;DHT22;36966;48.064;-0.792;2023-07-02T14:26:49;25.20;45.70
50955;DHT22;36966;48.064;-0.792;2023-07-02T14:29:08;25.20;45.60
50955;DHT22;36966;48.064;-0.792;2023-07-02T14:31:28;25.20;45.40
50955;DHT22;36966;48.064;-0.792;2023-07-02T14:33:47;25.20;45.60
50955;DHT22;36966;48.064;-0.792;2023-07-02T14:36:06;25.20;45.70